sensor_id;sensor_type;location;lat;lon;timestamp;P1;durP1;ratioP1;P2;durP2;ratioP2
58581;SDS011;44361;51.476;5.700;2023-04-01T00:02:02;3.80;;;1.38;;
58581;SDS011;44361;51.476;5.700;2023-04-01T00:04:28;6.00;;;1.15;;
58581;SDS011;44361;51.476;5.700;2023-04-01T00:06:53;5.15;;;1.02;;
58581;SDS011;44361;51.476;5.700;2023-04-01T00:09:19;4.32;;;0.90;;
58581;SDS011;44361;51.476;5.700;2023-04-01T00:11:44;6.07;;;1.40;;
58581;SDS011;44361;51.476;5.700;2023-04-01T00:14:10;2.08;;;0.80;;
58581;SDS011;44361;51.476;5.700;2023-04-01T00:16:36;5.20;;;1.20;;
58581;SDS011;44361;51.476;5.700;2023-04-01T00:19:02;2.78;;;1.27;;
58581;SDS011;44361;51.476;5.700;2023-04-01T00:21:27;5.47;;;1.05;;
58581;SDS011;44361;51.476;5.700;2023-04-01T00:23:53;4.35;;;1.10;;
58581;SDS011;44361;51.476;5.700;2023-04-01T00:26:19;4.32;;;1.25;;
58581;SDS011;44361;51.476;5.700;2023-04-01T00:28:46;3.50;;;0.77;;
58581;SDS011;44361;51.476;5.700;2023-04-01T00:31:13;5.45;;;1.02;;
58581;SDS011;44361;51.476;5.700;2023-04-01T00:33:39;2.83;;;1.00;;
58581;SDS011;44361;51.476;5.700;2023-04-01T00:36:16;3.92;;;1.25;;
58581;SDS011;44361;51.476;5.700;2023-04-01T00:38:43;3.92;;;1.10;;
58581;SDS011;44361;51.476;5.700;2023-04-01T00:41:10;7.28;;;1.00;;
58581;SDS011;44361;51.476;5.700;2023-04-01T00:43:39;2.25;;;1.20;;
58581;SDS011;44361;51.476;5.700;2023-04-01T00:46:09;4.63;;;1.10;;
58581;SDS011;44361;51.476;5.700;2023-04-01T00:48:36;2.90;;;1.20;;
58581;SDS011;44361;51.476;5.700;2023-04-01T00:51:11;1.77;;;0.93;;
58581;SDS011;44361;51.476;5.700;2023-04-01T00:53:53;3.20;;;0.70;;
58581;SDS011;44361;51.476;5.700;2023-04-01T00:56:55;2.40;;;0.90;;
58581;SDS011;44361;51.476;5.700;2023-04-01T00:59:25;2.08;;;0.80;;
58581;SDS011;44361;51.476;5.700;2023-04-01T01:01:54;4.93;;;1.20;;
58581;SDS011;44361;51.476;5.700;2023-04-01T01:06:58;3.13;;;1.15;;
58581;SDS011;44361;51.476;5.700;2023-04-01T01:15:16;2.75;;;0.80;;
58581;SDS011;44361;51.476;5.700;2023-04-01T01:17:58;2.72;;;0.82;;
58581;SDS011;44361;51.476;5.700;2023-04-01T01:23:43;2.30;;;0.80;;
58581;SDS011;44361;51.476;5.700;2023-04-01T01:26:45;2.38;;;0.85;;
58581;SDS011;44361;51.476;5.700;2023-04-01T01:32:10;4.57;;;0.95;;
58581;SDS011;44361;51.476;5.700;2023-04-01T01:34:47;3.20;;;0.70;;
58581;SDS011;44361;51.476;5.700;2023-04-01T01:37:18;1.83;;;0.75;;
58581;SDS011;44361;51.476;5.700;2023-04-01T01:39:50;1.50;;;0.80;;
58581;SDS011;44361;51.476;5.700;2023-04-01T01:42:19;3.97;;;0.80;;
58581;SDS011;44361;51.476;5.700;2023-04-01T01:44:47;1.73;;;1.02;;
58581;SDS011;44361;51.476;5.700;2023-04-01T01:47:15;1.73;;;0.80;;
58581;SDS011;44361;51.476;5.700;2023-04-01T01:49:42;3.92;;;1.15;;
58581;SDS011;44361;51.476;5.700;2023-04-01T01:52:10;2.28;;;0.82;;
58581;SDS011;44361;51.476;5.700;2023-04-01T01:54:46;1.42;;;0.80;;
58581;SDS011;44361;51.476;5.700;2023-04-01T01:57:16;2.08;;;1.00;;
58581;SDS011;44361;51.476;5.700;2023-04-01T01:59:44;2.20;;;0.85;;
58581;SDS011;44361;51.476;5.700;2023-04-01T02:02:12;4.55;;;1.20;;
58581;SDS011;44361;51.476;5.700;2023-04-01T02:04:39;4.07;;;1.30;;
58581;SDS011;44361;51.476;5.700;2023-04-01T02:07:10;3.00;;;1.10;;
58581;SDS011;44361;51.476;5.700;2023-04-01T02:09:48;2.45;;;1.63;;
58581;SDS011;44361;51.476;5.700;2023-04-01T02:12:15;3.40;;;1.58;;
58581;SDS011;44361;51.476;5.700;2023-04-01T02:14:46;2.85;;;1.58;;
58581;SDS011;44361;51.476;5.700;2023-04-01T02:17:20;2.33;;;1.30;;
58581;SDS011;44361;51.476;5.700;2023-04-01T02:19:52;1.90;;;1.38;;
58581;SDS011;44361;51.476;5.700;2023-04-01T02:22:23;3.60;;;1.50;;
58581;SDS011;44361;51.476;5.700;2023-04-01T02:24:52;3.28;;;1.73;;
58581;SDS011;44361;51.476;5.700;2023-04-01T02:27:22;6.80;;;2.35;;
58581;SDS011;44361;51.476;5.700;2023-04-01T02:29:49;4.00;;;2.30;;
58581;SDS011;44361;51.476;5.700;2023-04-01T02:32:15;3.65;;;2.50;;
58581;SDS011;44361;51.476;5.700;2023-04-01T02:34:42;5.75;;;2.40;;
58581;SDS011;44361;51.476;5.700;2023-04-01T02:37:08;4.70;;;3.15;;
58581;SDS011;44361;51.476;5.700;2023-04-01T02:39:35;5.50;;;2.72;;
58581;SDS011;44361;51.476;5.700;2023-04-01T02:42:00;7.82;;;3.42;;
58581;SDS011;44361;51.476;5.700;2023-04-01T02:44:26;5.47;;;3.63;;
58581;SDS011;44361;51.476;5.700;2023-04-01T02:46:51;6.93;;;3.53;;
58581;SDS011;44361;51.476;5.700;2023-04-01T02:49:17;9.35;;;4.18;;
58581;SDS011;44361;51.476;5.700;2023-04-01T02:51:43;7.30;;;4.43;;
58581;SDS011;44361;51.476;5.700;2023-04-01T02:54:09;7.63;;;4.03;;
58581;SDS011;44361;51.476;5.700;2023-04-01T02:56:34;7.80;;;4.25;;
58581;SDS011;44361;51.476;5.700;2023-04-01T02:59:00;9.52;;;4.38;;
58581;SDS011;44361;51.476;5.700;2023-04-01T03:01:26;8.50;;;4.40;;
58581;SDS011;44361;51.476;5.700;2023-04-01T03:03:51;8.85;;;4.85;;
58581;SDS011;44361;51.476;5.700;2023-04-01T03:06:17;9.45;;;4.95;;
58581;SDS011;44361;51.476;5.700;2023-04-01T03:08:43;9.18;;;5.10;;
58581;SDS011;44361;51.476;5.700;2023-04-01T03:11:09;9.23;;;5.25;;
58581;SDS011;44361;51.476;5.700;2023-04-01T03:13:35;8.70;;;4.75;;
58581;SDS011;44361;51.476;5.700;2023-04-01T03:16:00;8.75;;;4.68;;
58581;SDS011;44361;51.476;5.700;2023-04-01T03:18:26;7.78;;;4.00;;
58581;SDS011;44361;51.476;5.700;2023-04-01T03:20:52;8.82;;;4.72;;
58581;SDS011;44361;51.476;5.700;2023-04-01T03:23:17;7.03;;;4.60;;
58581;SDS011;44361;51.476;5.700;2023-04-01T03:25:45;6.95;;;4.40;;
58581;SDS011;44361;51.476;5.700;2023-04-01T03:28:11;8.18;;;4.15;;
58581;SDS011;44361;51.476;5.700;2023-04-01T03:30:38;6.03;;;4.43;;
58581;SDS011;44361;51.476;5.700;2023-04-01T03:33:03;7.60;;;4.90;;
58581;SDS011;44361;51.476;5.700;2023-04-01T03:35:29;10.80;;;4.72;;
58581;SDS011;44361;51.476;5.700;2023-04-01T03:37:54;10.15;;;4.57;;
58581;SDS011;44361;51.476;5.700;2023-04-01T03:40:21;10.52;;;4.57;;
58581;SDS011;44361;51.476;5.700;2023-04-01T03:42:46;9.52;;;4.55;;
58581;SDS011;44361;51.476;5.700;2023-04-01T03:45:12;12.35;;;4.53;;
58581;SDS011;44361;51.476;5.700;2023-04-01T03:47:39;7.88;;;4.97;;
58581;SDS011;44361;51.476;5.700;2023-04-01T03:50:05;8.20;;;4.88;;
58581;SDS011;44361;51.476;5.700;2023-04-01T03:52:31;7.95;;;4.97;;
58581;SDS011;44361;51.476;5.700;2023-04-01T03:54:57;7.78;;;4.65;;
58581;SDS011;44361;51.476;5.700;2023-04-01T03:57:23;8.45;;;5.28;;
58581;SDS011;44361;51.476;5.700;2023-04-01T03:59:48;9.05;;;4.82;;
58581;SDS011;44361;51.476;5.700;2023-04-01T04:02:14;8.52;;;4.53;;
58581;SDS011;44361;51.476;5.700;2023-04-01T04:04:40;7.50;;;5.03;;
58581;SDS011;44361;51.476;5.700;2023-04-01T04:07:06;9.20;;;5.25;;
58581;SDS011;44361;51.476;5.700;2023-04-01T04:09:31;7.18;;;4.35;;
58581;SDS011;44361;51.476;5.700;2023-04-01T04:11:58;8.75;;;4.88;;
58581;SDS011;44361;51.476;5.700;2023-04-01T04:14:24;8.38;;;4.10;;
58581;SDS011;44361;51.476;5.700;2023-04-01T04:16:49;5.63;;;3.97;;
58581;SDS011;44361;51.476;5.700;2023-04-01T04:19:15;6.80;;;4.38;;
58581;SDS011;44361;51.476;5.700;2023-04-01T04:21:40;7.88;;;4.78;;
58581;SDS011;44361;51.476;5.700;2023-04-01T04:24:07;7.38;;;4.72;;
58581;SDS011;44361;51.476;5.700;2023-04-01T04:26:33;6.50;;;4.50;;
58581;SDS011;44361;51.476;5.700;2023-04-01T04:28:59;6.25;;;4.57;;
58581;SDS011;44361;51.476;5.700;2023-04-01T04:31:26;8.18;;;4.93;;
58581;SDS011;44361;51.476;5.700;2023-04-01T04:33:52;8.10;;;4.38;;
58581;SDS011;44361;51.476;5.700;2023-04-01T04:36:18;7.57;;;4.68;;
58581;SDS011;44361;51.476;5.700;2023-04-01T04:38:44;6.18;;;3.80;;
58581;SDS011;44361;51.476;5.700;2023-04-01T04:41:14;7.78;;;4.65;;
58581;SDS011;44361;51.476;5.700;2023-04-01T04:43:47;9.10;;;5.53;;
58581;SDS011;44361;51.476;5.700;2023-04-01T04:46:15;8.02;;;4.78;;
58581;SDS011;44361;51.476;5.700;2023-04-01T04:48:40;7.30;;;4.55;;
58581;SDS011;44361;51.476;5.700;2023-04-01T04:51:06;9.55;;;5.53;;
58581;SDS011;44361;51.476;5.700;2023-04-01T04:53:32;12.10;;;5.18;;
58581;SDS011;44361;51.476;5.700;2023-04-01T04:55:57;8.75;;;4.53;;
58581;SDS011;44361;51.476;5.700;2023-04-01T04:58:23;7.05;;;4.78;;
58581;SDS011;44361;51.476;5.700;2023-04-01T05:00:48;10.30;;;5.05;;
58581;SDS011;44361;51.476;5.700;2023-04-01T05:03:14;9.77;;;5.22;;
58581;SDS011;44361;51.476;5.700;2023-04-01T05:05:39;9.65;;;4.72;;
58581;SDS011;44361;51.476;5.700;2023-04-01T05:08:12;7.93;;;4.75;;
58581;SDS011;44361;51.476;5.700;2023-04-01T05:10:37;10.32;;;4.72;;
58581;SDS011;44361;51.476;5.700;2023-04-01T05:13:03;10.25;;;4.80;;
58581;SDS011;44361;51.476;5.700;2023-04-01T05:15:28;7.03;;;4.20;;
58581;SDS011;44361;51.476;5.700;2023-04-01T05:17:54;8.02;;;4.88;;
58581;SDS011;44361;51.476;5.700;2023-04-01T05:20:19;6.95;;;4.28;;
58581;SDS011;44361;51.476;5.700;2023-04-01T05:22:45;7.32;;;3.97;;
58581;SDS011;44361;51.476;5.700;2023-04-01T05:25:10;8.25;;;4.38;;
58581;SDS011;44361;51.476;5.700;2023-04-01T05:27:36;7.88;;;4.65;;
58581;SDS011;44361;51.476;5.700;2023-04-01T05:30:02;8.20;;;4.22;;
58581;SDS011;44361;51.476;5.700;2023-04-01T05:32:28;7.60;;;3.70;;
58581;SDS011;44361;51.476;5.700;2023-04-01T05:34:55;8.00;;;3.70;;
58581;SDS011;44361;51.476;5.700;2023-04-01T05:37:21;7.32;;;3.60;;
58581;SDS011;44361;51.476;5.700;2023-04-01T05:39:47;4.38;;;3.15;;
58581;SDS011;44361;51.476;5.700;2023-04-01T05:42:13;5.95;;;3.58;;
58581;SDS011;44361;51.476;5.700;2023-04-01T05:44:38;7.53;;;3.60;;
58581;SDS011;44361;51.476;5.700;2023-04-01T05:47:04;5.45;;;3.40;;
58581;SDS011;44361;51.476;5.700;2023-04-01T05:49:30;6.30;;;3.40;;
58581;SDS011;44361;51.476;5.700;2023-04-01T05:51:56;5.55;;;3.47;;
58581;SDS011;44361;51.476;5.700;2023-04-01T05:54:21;6.47;;;3.55;;
58581;SDS011;44361;51.476;5.700;2023-04-01T05:56:47;5.95;;;3.28;;
58581;SDS011;44361;51.476;5.700;2023-04-01T05:59:12;5.53;;;2.65;;
58581;SDS011;44361;51.476;5.700;2023-04-01T06:01:38;4.90;;;2.72;;
58581;SDS011;44361;51.476;5.700;2023-04-01T06:04:04;5.30;;;2.92;;
58581;SDS011;44361;51.476;5.700;2023-04-01T06:06:31;3.88;;;2.60;;
58581;SDS011;44361;51.476;5.700;2023-04-01T06:08:58;4.38;;;2.70;;
58581;SDS011;44361;51.476;5.700;2023-04-01T06:14:44;5.20;;;2.78;;
58581;SDS011;44361;51.476;5.700;2023-04-01T06:25:48;6.05;;;3.85;;
58581;SDS011;44361;51.476;5.700;2023-04-01T06:41:48;8.60;;;4.50;;
58581;SDS011;44361;51.476;5.700;2023-04-01T06:44:56;7.65;;;4.45;;
58581;SDS011;44361;51.476;5.700;2023-04-01T06:52:50;6.68;;;3.83;;
58581;SDS011;44361;51.476;5.700;2023-04-01T06:58:19;8.95;;;4.40;;
58581;SDS011;44361;51.476;5.700;2023-04-01T07:00:48;7.45;;;4.07;;
58581;SDS011;44361;51.476;5.700;2023-04-01T07:03:30;8.45;;;4.55;;
58581;SDS011;44361;51.476;5.700;2023-04-01T07:06:21;8.47;;;4.80;;
58581;SDS011;44361;51.476;5.700;2023-04-01T07:09:02;8.43;;;4.15;;
58581;SDS011;44361;51.476;5.700;2023-04-01T07:11:38;11.88;;;5.03;;
58581;SDS011;44361;51.476;5.700;2023-04-01T07:14:08;10.85;;;5.47;;
58581;SDS011;44361;51.476;5.700;2023-04-01T07:19:45;13.85;;;6.60;;
58581;SDS011;44361;51.476;5.700;2023-04-01T07:22:33;12.38;;;6.55;;
58581;SDS011;44361;51.476;5.700;2023-04-01T07:27:30;11.45;;;6.57;;
58581;SDS011;44361;51.476;5.700;2023-04-01T07:29:59;15.48;;;8.40;;
58581;SDS011;44361;51.476;5.700;2023-04-01T07:32:32;18.55;;;8.10;;
58581;SDS011;44361;51.476;5.700;2023-04-01T07:43:19;20.20;;;9.68;;
58581;SDS011;44361;51.476;5.700;2023-04-01T07:48:35;16.92;;;9.60;;
58581;SDS011;44361;51.476;5.700;2023-04-01T07:54:04;17.33;;;9.80;;
58581;SDS011;44361;51.476;5.700;2023-04-01T07:56:47;19.83;;;9.60;;
58581;SDS011;44361;51.476;5.700;2023-04-01T07:59:24;21.42;;;9.55;;
58581;SDS011;44361;51.476;5.700;2023-04-01T08:02:19;20.50;;;10.02;;
58581;SDS011;44361;51.476;5.700;2023-04-01T08:05:00;21.35;;;10.45;;
58581;SDS011;44361;51.476;5.700;2023-04-01T08:08:11;22.65;;;10.13;;
58581;SDS011;44361;51.476;5.700;2023-04-01T08:10:57;22.70;;;10.32;;
58581;SDS011;44361;51.476;5.700;2023-04-01T08:16:23;24.35;;;10.77;;
58581;SDS011;44361;51.476;5.700;2023-04-01T08:21:29;21.08;;;11.25;;
58581;SDS011;44361;51.476;5.700;2023-04-01T08:24:56;22.77;;;11.38;;
58581;SDS011;44361;51.476;5.700;2023-04-01T08:27:09;25.60;;;12.20;;
58581;SDS011;44361;51.476;5.700;2023-04-01T08:29:51;24.98;;;12.48;;
58581;SDS011;44361;51.476;5.700;2023-04-01T08:32:32;21.05;;;11.65;;
58581;SDS011;44361;51.476;5.700;2023-04-01T08:35:24;20.85;;;11.02;;
58581;SDS011;44361;51.476;5.700;2023-04-01T08:37:57;23.27;;;11.27;;
58581;SDS011;44361;51.476;5.700;2023-04-01T08:43:26;19.48;;;11.02;;
58581;SDS011;44361;51.476;5.700;2023-04-01T08:46:15;17.55;;;9.90;;
58581;SDS011;44361;51.476;5.700;2023-04-01T08:52:18;16.75;;;9.63;;
58581;SDS011;44361;51.476;5.700;2023-04-01T08:55:01;18.35;;;9.85;;
58581;SDS011;44361;51.476;5.700;2023-04-01T09:00:25;19.80;;;9.93;;
58581;SDS011;44361;51.476;5.700;2023-04-01T09:14:54;16.73;;;9.90;;
58581;SDS011;44361;51.476;5.700;2023-04-01T09:17:39;19.58;;;10.82;;
58581;SDS011;44361;51.476;5.700;2023-04-01T09:20:17;18.77;;;9.93;;
58581;SDS011;44361;51.476;5.700;2023-04-01T09:23:15;18.58;;;9.02;;
58581;SDS011;44361;51.476;5.700;2023-04-01T09:26:12;15.70;;;9.02;;
58581;SDS011;44361;51.476;5.700;2023-04-01T09:34:25;16.35;;;8.05;;
58581;SDS011;44361;51.476;5.700;2023-04-01T09:42:44;13.75;;;8.35;;
58581;SDS011;44361;51.476;5.700;2023-04-01T09:50:32;11.93;;;6.82;;
58581;SDS011;44361;51.476;5.700;2023-04-01T09:56:07;10.65;;;6.05;;
58581;SDS011;44361;51.476;5.700;2023-04-01T09:59:13;9.90;;;6.75;;
58581;SDS011;44361;51.476;5.700;2023-04-01T10:02:01;9.75;;;5.97;;
58581;SDS011;44361;51.476;5.700;2023-04-01T10:13:09;7.15;;;5.00;;
58581;SDS011;44361;51.476;5.700;2023-04-01T10:24:26;7.82;;;4.75;;
58581;SDS011;44361;51.476;5.700;2023-04-01T10:27:31;7.38;;;5.20;;
58581;SDS011;44361;51.476;5.700;2023-04-01T10:30:36;7.15;;;5.18;;
58581;SDS011;44361;51.476;5.700;2023-04-01T10:39:07;11.55;;;6.60;;
58581;SDS011;44361;51.476;5.700;2023-04-01T10:42:11;10.18;;;6.60;;
58581;SDS011;44361;51.476;5.700;2023-04-01T10:45:21;10.93;;;6.13;;
58581;SDS011;44361;51.476;5.700;2023-04-01T11:07:43;13.35;;;7.68;;
58581;SDS011;44361;51.476;5.700;2023-04-01T11:15:49;16.67;;;9.00;;
58581;SDS011;44361;51.476;5.700;2023-04-01T11:30:02;16.73;;;8.48;;
58581;SDS011;44361;51.476;5.700;2023-04-01T11:32:36;16.27;;;9.25;;
58581;SDS011;44361;51.476;5.700;2023-04-01T11:35:22;15.43;;;8.85;;
58581;SDS011;44361;51.476;5.700;2023-04-01T11:43:47;16.42;;;8.85;;
58581;SDS011;44361;51.476;5.700;2023-04-01T11:46:23;17.60;;;8.75;;
58581;SDS011;44361;51.476;5.700;2023-04-01T11:49:01;17.73;;;8.95;;
58581;SDS011;44361;51.476;5.700;2023-04-01T12:02:42;19.23;;;9.38;;
58581;SDS011;44361;51.476;5.700;2023-04-01T12:08:37;14.18;;;7.90;;
58581;SDS011;44361;51.476;5.700;2023-04-01T12:13:59;12.13;;;7.80;;
58581;SDS011;44361;51.476;5.700;2023-04-01T12:16:53;12.98;;;7.78;;
58581;SDS011;44361;51.476;5.700;2023-04-01T12:19:41;13.50;;;7.60;;
58581;SDS011;44361;51.476;5.700;2023-04-01T12:24:53;11.40;;;6.93;;
58581;SDS011;44361;51.476;5.700;2023-04-01T12:33:29;11.13;;;6.70;;
58581;SDS011;44361;51.476;5.700;2023-04-01T12:36:33;9.13;;;5.63;;
58581;SDS011;44361;51.476;5.700;2023-04-01T12:47:31;7.68;;;4.88;;
58581;SDS011;44361;51.476;5.700;2023-04-01T12:53:18;7.18;;;5.18;;
58581;SDS011;44361;51.476;5.700;2023-04-01T12:55:58;6.35;;;4.40;;
58581;SDS011;44361;51.476;5.700;2023-04-01T13:04:04;7.70;;;5.38;;
58581;SDS011;44361;51.476;5.700;2023-04-01T13:09:14;11.52;;;6.65;;
58581;SDS011;44361;51.476;5.700;2023-04-01T13:11:50;8.52;;;5.65;;
58581;SDS011;44361;51.476;5.700;2023-04-01T13:14:32;6.75;;;5.55;;
58581;SDS011;44361;51.476;5.700;2023-04-01T13:22:15;7.50;;;5.68;;
58581;SDS011;44361;51.476;5.700;2023-04-01T13:27:48;9.98;;;6.68;;
58581;SDS011;44361;51.476;5.700;2023-04-01T13:30:24;10.95;;;6.97;;
58581;SDS011;44361;51.476;5.700;2023-04-01T13:32:58;9.35;;;6.35;;
58581;SDS011;44361;51.476;5.700;2023-04-01T13:38:31;11.70;;;6.55;;
58581;SDS011;44361;51.476;5.700;2023-04-01T13:41:55;14.38;;;7.15;;
58581;SDS011;44361;51.476;5.700;2023-04-01T14:01:00;8.95;;;5.68;;
58581;SDS011;44361;51.476;5.700;2023-04-01T14:23:17;11.77;;;7.45;;
58581;SDS011;44361;51.476;5.700;2023-04-01T14:28:26;9.70;;;6.55;;
58581;SDS011;44361;51.476;5.700;2023-04-01T14:40:00;11.73;;;7.10;;
58581;SDS011;44361;51.476;5.700;2023-04-01T14:50:30;11.73;;;8.35;;
58581;SDS011;44361;51.476;5.700;2023-04-01T14:53:24;10.25;;;7.03;;
58581;SDS011;44361;51.476;5.700;2023-04-01T14:55:54;12.00;;;7.07;;
58581;SDS011;44361;51.476;5.700;2023-04-01T14:58:25;10.07;;;6.70;;
58581;SDS011;44361;51.476;5.700;2023-04-01T15:06:35;13.70;;;8.43;;
58581;SDS011;44361;51.476;5.700;2023-04-01T15:09:14;12.10;;;7.20;;
58581;SDS011;44361;51.476;5.700;2023-04-01T15:14:51;10.77;;;6.40;;
58581;SDS011;44361;51.476;5.700;2023-04-01T15:17:43;11.73;;;7.10;;
58581;SDS011;44361;51.476;5.700;2023-04-01T15:20:33;9.68;;;6.38;;
58581;SDS011;44361;51.476;5.700;2023-04-01T15:28:38;11.15;;;7.20;;
58581;SDS011;44361;51.476;5.700;2023-04-01T15:36:41;13.27;;;8.25;;
58581;SDS011;44361;51.476;5.700;2023-04-01T15:39:24;13.88;;;8.15;;
58581;SDS011;44361;51.476;5.700;2023-04-01T15:49:56;11.52;;;7.28;;
58581;SDS011;44361;51.476;5.700;2023-04-01T15:55:56;13.77;;;9.05;;
58581;SDS011;44361;51.476;5.700;2023-04-01T16:06:28;16.92;;;9.18;;
58581;SDS011;44361;51.476;5.700;2023-04-01T16:09:06;13.13;;;8.13;;
58581;SDS011;44361;51.476;5.700;2023-04-01T16:12:07;14.85;;;9.35;;
58581;SDS011;44361;51.476;5.700;2023-04-01T16:28:13;16.50;;;9.68;;
58581;SDS011;44361;51.476;5.700;2023-04-01T16:33:40;15.85;;;8.80;;
58581;SDS011;44361;51.476;5.700;2023-04-01T16:36:20;14.02;;;8.93;;
58581;SDS011;44361;51.476;5.700;2023-04-01T16:42:07;15.02;;;8.82;;
58581;SDS011;44361;51.476;5.700;2023-04-01T16:45:16;14.90;;;8.77;;
58581;SDS011;44361;51.476;5.700;2023-04-01T16:47:58;15.55;;;8.25;;
58581;SDS011;44361;51.476;5.700;2023-04-01T16:50:55;17.27;;;10.68;;
58581;SDS011;44361;51.476;5.700;2023-04-01T16:58:27;13.65;;;8.38;;
58581;SDS011;44361;51.476;5.700;2023-04-01T17:01:07;13.88;;;8.32;;
58581;SDS011;44361;51.476;5.700;2023-04-01T17:03:44;14.73;;;9.18;;
58581;SDS011;44361;51.476;5.700;2023-04-01T17:17:18;13.30;;;7.70;;
58581;SDS011;44361;51.476;5.700;2023-04-01T17:23:00;11.30;;;7.57;;
58581;SDS011;44361;51.476;5.700;2023-04-01T17:25:46;12.85;;;7.65;;
58581;SDS011;44361;51.476;5.700;2023-04-01T17:28:24;11.27;;;7.57;;
58581;SDS011;44361;51.476;5.700;2023-04-01T17:31:07;12.93;;;7.47;;
58581;SDS011;44361;51.476;5.700;2023-04-01T17:42:15;13.75;;;8.38;;
58581;SDS011;44361;51.476;5.700;2023-04-01T17:47:47;15.15;;;8.02;;
58581;SDS011;44361;51.476;5.700;2023-04-01T17:53:22;13.57;;;8.60;;
58581;SDS011;44361;51.476;5.700;2023-04-01T17:56:17;14.23;;;8.75;;
58581;SDS011;44361;51.476;5.700;2023-04-01T17:58:59;15.43;;;9.40;;
58581;SDS011;44361;51.476;5.700;2023-04-01T18:07:25;16.80;;;9.10;;
58581;SDS011;44361;51.476;5.700;2023-04-01T18:10:13;14.95;;;8.23;;
58581;SDS011;44361;51.476;5.700;2023-04-01T18:13:06;13.60;;;7.97;;
58581;SDS011;44361;51.476;5.700;2023-04-01T18:19:02;14.90;;;7.50;;
58581;SDS011;44361;51.476;5.700;2023-04-01T18:21:50;12.48;;;6.85;;
58581;SDS011;44361;51.476;5.700;2023-04-01T18:24:24;15.07;;;7.07;;
58581;SDS011;44361;51.476;5.700;2023-04-01T18:27:24;13.63;;;7.28;;
58581;SDS011;44361;51.476;5.700;2023-04-01T18:30:13;11.70;;;6.70;;
58581;SDS011;44361;51.476;5.700;2023-04-01T18:38:49;9.38;;;5.43;;
58581;SDS011;44361;51.476;5.700;2023-04-01T18:44:11;7.65;;;4.00;;
58581;SDS011;44361;51.476;5.700;2023-04-01T18:52:51;8.77;;;3.85;;
58581;SDS011;44361;51.476;5.700;2023-04-01T18:55:33;7.80;;;4.30;;
58581;SDS011;44361;51.476;5.700;2023-04-01T19:00:44;7.80;;;4.97;;
58581;SDS011;44361;51.476;5.700;2023-04-01T19:05:47;9.07;;;5.53;;
58581;SDS011;44361;51.476;5.700;2023-04-01T19:10:54;10.35;;;5.75;;
58581;SDS011;44361;51.476;5.700;2023-04-01T19:14:02;10.23;;;5.28;;
58581;SDS011;44361;51.476;5.700;2023-04-01T19:16:49;10.43;;;5.38;;
58581;SDS011;44361;51.476;5.700;2023-04-01T19:19:46;9.95;;;5.03;;
58581;SDS011;44361;51.476;5.700;2023-04-01T19:22:39;9.15;;;5.20;;
58581;SDS011;44361;51.476;5.700;2023-04-01T19:27:35;11.43;;;6.10;;
58581;SDS011;44361;51.476;5.700;2023-04-01T19:30:19;10.02;;;5.20;;
58581;SDS011;44361;51.476;5.700;2023-04-01T19:36:03;12.35;;;7.13;;
58581;SDS011;44361;51.476;5.700;2023-04-01T19:38:52;11.07;;;6.57;;
58581;SDS011;44361;51.476;5.700;2023-04-01T19:44:17;12.95;;;6.70;;
58581;SDS011;44361;51.476;5.700;2023-04-01T19:47:01;13.77;;;7.55;;
58581;SDS011;44361;51.476;5.700;2023-04-01T19:49:42;11.65;;;7.28;;
58581;SDS011;44361;51.476;5.700;2023-04-01T20:09:04;16.00;;;8.77;;
58581;SDS011;44361;51.476;5.700;2023-04-01T20:14:28;14.67;;;8.57;;
58581;SDS011;44361;51.476;5.700;2023-04-01T20:17:02;15.18;;;8.95;;
58581;SDS011;44361;51.476;5.700;2023-04-01T20:22:16;13.93;;;8.68;;
58581;SDS011;44361;51.476;5.700;2023-04-01T20:24:53;14.23;;;8.00;;
58581;SDS011;44361;51.476;5.700;2023-04-01T20:27:26;15.55;;;8.38;;
58581;SDS011;44361;51.476;5.700;2023-04-01T20:32:55;13.52;;;7.90;;
58581;SDS011;44361;51.476;5.700;2023-04-01T20:36:00;11.88;;;7.75;;
58581;SDS011;44361;51.476;5.700;2023-04-01T20:44:20;12.65;;;7.57;;
58581;SDS011;44361;51.476;5.700;2023-04-01T20:47:00;13.52;;;7.28;;
58581;SDS011;44361;51.476;5.700;2023-04-01T20:49:52;12.02;;;7.18;;
58581;SDS011;44361;51.476;5.700;2023-04-01T20:52:42;11.32;;;7.07;;
58581;SDS011;44361;51.476;5.700;2023-04-01T21:03:44;17.38;;;9.65;;
58581;SDS011;44361;51.476;5.700;2023-04-01T21:19:43;13.90;;;8.23;;
58581;SDS011;44361;51.476;5.700;2023-04-01T21:22:33;13.98;;;8.98;;
58581;SDS011;44361;51.476;5.700;2023-04-01T21:25:26;12.65;;;7.60;;
58581;SDS011;44361;51.476;5.700;2023-04-01T21:49:55;15.45;;;8.07;;
58581;SDS011;44361;51.476;5.700;2023-04-01T21:55:24;12.73;;;7.50;;
58581;SDS011;44361;51.476;5.700;2023-04-01T22:08:41;12.68;;;8.00;;
58581;SDS011;44361;51.476;5.700;2023-04-01T22:11:22;14.43;;;8.57;;
58581;SDS011;44361;51.476;5.700;2023-04-01T22:17:24;15.18;;;9.27;;
58581;SDS011;44361;51.476;5.700;2023-04-01T22:20:23;15.80;;;8.75;;
58581;SDS011;44361;51.476;5.700;2023-04-01T22:25:49;17.45;;;10.30;;
58581;SDS011;44361;51.476;5.700;2023-04-01T22:31:03;16.50;;;9.38;;
58581;SDS011;44361;51.476;5.700;2023-04-01T22:47:21;17.33;;;9.35;;
58581;SDS011;44361;51.476;5.700;2023-04-01T22:50:07;16.02;;;9.43;;
58581;SDS011;44361;51.476;5.700;2023-04-01T22:52:44;14.55;;;8.77;;
58581;SDS011;44361;51.476;5.700;2023-04-01T22:55:14;15.93;;;8.63;;
58581;SDS011;44361;51.476;5.700;2023-04-01T22:57:53;14.57;;;9.27;;
58581;SDS011;44361;51.476;5.700;2023-04-01T23:00:30;14.88;;;9.07;;
58581;SDS011;44361;51.476;5.700;2023-04-01T23:11:06;13.75;;;8.55;;
58581;SDS011;44361;51.476;5.700;2023-04-01T23:14:04;14.75;;;8.52;;
58581;SDS011;44361;51.476;5.700;2023-04-01T23:16:46;15.25;;;8.70;;
58581;SDS011;44361;51.476;5.700;2023-04-01T23:22:03;12.35;;;7.65;;
58581;SDS011;44361;51.476;5.700;2023-04-01T23:24:36;15.25;;;8.48;;
58581;SDS011;44361;51.476;5.700;2023-04-01T23:27:08;15.52;;;8.52;;
58581;SDS011;44361;51.476;5.700;2023-04-01T23:29:42;13.93;;;8.60;;
58581;SDS011;44361;51.476;5.700;2023-04-01T23:32:26;10.57;;;7.13;;
58581;SDS011;44361;51.476;5.700;2023-04-01T23:34:54;11.13;;;7.50;;
58581;SDS011;44361;51.476;5.700;2023-04-01T23:37:22;10.55;;;6.97;;
58581;SDS011;44361;51.476;5.700;2023-04-01T23:39:49;12.10;;;7.13;;
58581;SDS011;44361;51.476;5.700;2023-04-01T23:42:24;11.95;;;7.18;;
58581;SDS011;44361;51.476;5.700;2023-04-01T23:44:59;10.50;;;6.38;;
58581;SDS011;44361;51.476;5.700;2023-04-01T23:47:29;10.38;;;6.50;;
58581;SDS011;44361;51.476;5.700;2023-04-01T23:49:58;10.50;;;6.43;;
58581;SDS011;44361;51.476;5.700;2023-04-01T23:52:30;15.75;;;6.82;;
58581;SDS011;44361;51.476;5.700;2023-04-01T23:57:35;12.55;;;6.70;;
